Latest Coastal Weather Observations for Hopetoun North

IDW60701

Issued at 1:02 am WST Sunday 14 February 2016 (issued every 10 minutes, with the page automatically refreshed every 10 minutes)

About coastal observations | Map of coastal stations | Coastal observations for WA | Marine services | Other Formats
Station Details ID: 009961 Name: HOPETOUN NORTH Lat: -33.93 Lon: 120.13 Height: 26.0 m
Data from the previous 72 hours. | See also: Recent months at Hopetoun North
Date/Time
WST
Temp

°C
Wind Pressure Rain
since 9am
mm
Weather Cloud Vis
km
Sea
Height
m
Swell
Dir
 
Speed
knots
Gust
knots
hPa Trend Height
m
Period
s
Dir
14/01:00am 17.4 SSE 7 9 1022.7 - 0.0 - - - - - - -
14/12:30am 17.3 SSE 6 9 1023.0 - 0.0 - - - - - - -
14/12:00am 17.3 SSE 9 12 1023.1 - 0.0 - - - - - - -
 
Date/Time
WST
Temp

°C
Wind Pressure Rain
since 9am
mm
Weather Cloud Vis
km
Sea
Height
m
Swell
Dir
 
Speed
knots
Gust
knots
hPa Trend Height
m
Period
s
Dir
13/11:30pm 17.4 S 9 12 1023.2 - 0.0 - - - - - - -
13/11:00pm 17.7 SSE 9 13 1023.4 - 0.0 - - - - - - -
13/10:30pm 17.1 S 10 14 1023.7 - 0.0 - - - - - - -
13/10:00pm 16.3 S 8 11 1023.7 - 0.0 - - - - - - -
13/09:30pm 16.5 SSE 9 13 1023.7 - 0.0 - - - - - - -
13/09:00pm 16.5 S 10 13 1023.5 - 0.0 - - - - - - -
13/08:30pm 16.5 S 10 15 1023.6 - 0.0 - - - - - - -
13/08:00pm 16.5 S 10 16 1023.3 - 0.0 - - - - - - -
13/07:30pm 16.3 S 10 15 1022.9 - 0.0 - - - - - - -
13/07:00pm 16.6 S 11 15 1022.6 - 0.0 - - - - - - -
13/06:30pm 16.5 S 10 15 1022.3 - 0.0 - - - - - - -
13/06:00pm 16.8 S 11 16 1022.0 - 0.0 - - - - - - -
13/05:30pm 17.4 S 12 16 1021.9 - 0.0 - - - - - - -
13/05:00pm 18.1 S 12 16 1021.7 - 0.0 - - - - - - -
13/04:30pm 18.4 SSW 14 18 1021.8 - 0.0 - - - - - - -
13/04:00pm 18.5 S 13 19 1021.8 - 0.0 - - - - - - -
13/03:30pm 19.1 S 14 19 1021.8 - 0.0 - - - - - - -
13/03:00pm 18.5 S 16 20 1021.9 - 0.0 - - - - - - -
13/02:30pm 18.4 SSW 15 20 1021.8 - 0.0 - - - - - - -
13/02:00pm 20.1 SSW 15 20 1021.9 - 0.0 - - - - - - -
13/01:30pm 19.7 S 13 18 1022.1 - 0.0 - - - - - - -
13/01:00pm 19.4 SSW 13 19 1022.2 - 0.0 - - - - - - -
13/12:30pm 20.1 SSW 11 15 1022.4 - 0.0 - - - - - - -
13/12:00pm 20.3 SSW 11 16 1022.4 - 0.0 - - - - - - -
13/11:30am 20.6 SSW 11 15 1022.7 - 0.0 - - - - - - -
13/11:00am 20.3 S 10 15 1022.8 - 0.0 - - - - - - -
13/10:30am 20.2 SSW 12 16 1022.8 - 0.0 - - - - - - -
13/10:00am 20.2 SSW 12 16 1022.7 - 0.0 - - - - - - -
13/09:30am 20.4 SSW 7 11 1022.7 - 0.0 - - - - - - -
13/09:00am 19.9 SW 10 15 1022.6 - 0.0 - - - - - - -
13/08:30am 19.4 SW 10 15 1022.6 - 0.0 - - - - - - -
13/08:00am 18.8 SW 10 13 1022.5 - 0.0 - - - - - - -
13/07:30am 18.1 SSW 7 11 1022.5 - 0.0 - - - - - - -
13/07:00am 18.1 SSW 8 12 1022.2 - 0.0 - - - - - - -
13/06:30am 17.7 SW 10 16 1021.8 - 0.0 - - - - - - -
13/06:00am 17.9 SSW 12 17 1021.4 - 0.0 - - - - - - -
13/05:30am 18.0 SSW 12 16 1021.0 - 0.0 - - - - - - -
13/05:00am 18.0 SSW 12 18 1020.6 - 0.0 - - - - - - -
13/04:30am 17.6 SW 15 21 1020.0 - 0.0 - - - - - - -
13/04:00am 17.8 SSW 12 18 1019.7 - 0.0 - - - - - - -
13/03:30am 17.8 SSW 13 18 1019.6 - 0.0 - - - - - - -
13/03:00am 17.8 SSW 14 19 1019.2 - 0.0 - - - - - - -
13/02:30am 18.0 SSW 12 17 1019.0 - 0.0 - - - - - - -
13/02:00am 18.2 SSW 11 16 1019.0 - 0.0 - - - - - - -
13/01:30am 18.1 SSW 10 13 1019.0 - 0.0 - - - - - - -
13/01:00am 18.1 S 10 15 1018.9 - 0.0 - - - - - - -
13/12:30am 17.1 SSW 12 17 1018.8 - 0.0 - - - - - - -
13/12:00am 17.4 SSW 9 13 1018.9 - 0.0 - - - - - - -
 
Date/Time
WST
Temp

°C
Wind Pressure Rain
since 9am
mm
Weather Cloud Vis
km
Sea
Height
m
Swell
Dir
 
Speed
knots
Gust
knots
hPa Trend Height
m
Period
s
Dir
12/11:30pm 17.5 SSW 9 13 1019.1 - 0.0 - - - - - - -
12/11:00pm 17.5 SSW 9 13 1019.2 - 0.0 - - - - - - -
12/10:30pm 17.2 S 8 13 1019.3 - 0.0 - - - - - - -
12/10:00pm 17.7 S 7 10 1019.4 - 0.0 - - - - - - -
12/09:30pm 17.9 S 8 11 1019.4 - 0.0 - - - - - - -
12/09:00pm 17.7 SSW 7 10 1019.4 - 0.0 - - - - - - -
12/08:30pm 17.8 S 9 12 1019.3 - 0.0 - - - - - - -
12/08:00pm 17.8 SSW 9 14 1019.0 - 0.0 - - - - - - -
12/07:30pm 17.8 S 9 11 1018.7 - 0.0 - - - - - - -
12/07:00pm 17.7 SSW 7 11 1018.4 - 0.0 - - - - - - -
12/06:30pm 18.0 S 8 10 1018.1 - 0.0 - - - - - - -
12/06:00pm 18.6 S 9 12 1017.8 - 0.0 - - - - - - -
12/05:30pm 18.9 S 10 14 1017.5 - 0.0 - - - - - - -
12/05:00pm 19.0 S 10 14 1017.3 - 0.0 - - - - - - -
12/04:30pm 19.1 SSW 13 17 1017.3 - 0.0 - - - - - - -
12/04:00pm 19.8 S 13 18 1017.1 - 0.0 - - - - - - -
12/03:30pm 20.2 SSW 14 18 1017.1 - 0.0 - - - - - - -
12/03:00pm 20.4 SSW 16 20 1016.9 - 0.0 - - - - - - -
12/02:30pm 20.8 SSW 16 20 1016.9 - 0.0 - - - - - - -
12/02:00pm 20.9 SSW 16 21 1017.0 - 0.0 - - - - - - -
12/01:30pm 20.5 SSW 17 22 1016.8 - 0.0 - - - - - - -
12/01:00pm 20.9 SSW 15 22 1016.7 - 0.0 - - - - - - -
12/12:30pm 20.9 SSW 15 19 1016.5 - 0.0 - - - - - - -
12/12:00pm 20.3 SSW 14 19 1016.6 - 0.0 - - - - - - -
12/11:30am 20.8 SSW 13 18 1016.6 - 0.0 - - - - - - -
12/11:00am 21.1 SW 12 16 1016.6 - 0.0 - - - - - - -
12/10:30am 20.2 SW 12 17 1016.8 - 0.0 - - - - - - -
12/10:00am 20.0 SW 12 16 1016.7 - 0.0 - - - - - - -
12/09:30am 19.8 SW 12 16 1016.8 - 0.0 - - - - - - -
12/09:00am 19.7 SW 10 13 1016.6 - 0.0 - - - - - - -
12/08:30am 19.4 SW 10 15 1016.4 - 0.0 - - - - - - -
12/08:00am 19.0 SW 10 15 1016.6 - 0.0 - - - - - - -
12/07:30am 18.5 SW 9 14 1016.4 - 0.0 - - - - - - -
12/07:00am 18.4 SW 9 12 1016.4 - 0.0 - - - - - - -
12/06:30am 18.0 SW 10 14 1015.9 - 0.0 - - - - - - -
12/06:00am 17.9 SW 9 13 1015.9 - 0.0 - - - - - - -
12/05:30am 17.9 SW 11 17 1015.5 - 0.0 - - - - - - -
12/05:00am 18.0 SW 10 15 1015.0 - 0.0 - - - - - - -
12/04:30am 18.1 SW 10 15 1014.4 - 0.0 - - - - - - -
12/04:00am 18.1 SW 11 17 1014.2 - 0.0 - - - - - - -
12/03:30am 18.1 SW 11 16 1013.8 - 0.0 - - - - - - -
12/03:00am 18.1 SW 12 16 1013.4 - 0.0 - - - - - - -
12/02:30am 18.2 SW 12 17 1013.0 - 0.0 - - - - - - -
12/02:00am 18.4 SW 11 16 1012.9 - 0.0 - - - - - - -
12/01:30am 18.7 SW 8 12 1013.1 - 0.0 - - - - - - -
12/01:00am 18.5 SW 9 14 1013.3 - 0.0 - - - - - - -
12/12:30am 18.4 SW 11 16 1013.3 - 0.0 - - - - - - -
12/12:00am 18.8 SW 12 17 1013.1 - 0.0 - - - - - - -
 
Date/Time
WST
Temp

°C
Wind Pressure Rain
since 9am
mm
Weather Cloud Vis
km
Sea
Height
m
Swell
Dir
 
Speed
knots
Gust
knots
hPa Trend Height
m
Period
s
Dir
11/11:30pm 20.2 SW 12 18 1013.1 - 0.0 - - - - - - -
11/11:00pm 20.1 SW 11 17 1013.0 - 0.0 - - - - - - -
11/10:30pm 20.3 SW 10 12 1013.1 - 0.0 - - - - - - -
11/10:00pm 20.4 SW 9 13 1013.0 - 0.0 - - - - - - -
11/09:30pm 20.2 SW 9 13 1012.7 - 0.0 - - - - - - -
11/09:00pm 17.7 SW 7 9 1013.0 - 0.0 - - - - - - -
11/08:30pm 20.0 SW 6 9 1012.6 - 0.0 - - - - - - -
11/08:00pm 17.6 SW 7 10 1012.5 - 0.0 - - - - - - -
11/07:30pm 17.7 SW 6 10 1012.4 - 0.0 - - - - - - -
11/07:00pm 17.9 SW 4 5 1011.9 - 0.0 - - - - - - -
11/06:30pm 18.7 SW 5 7 1011.7 - 0.0 - - - - - - -
11/06:00pm 19.4 SW 4 6 1011.6 - 0.0 - - - - - - -
11/05:30pm 20.3 SW 3 7 1011.4 - 0.0 - - - - - - -
11/05:00pm 19.7 SSW 8 12 1011.4 - 0.0 - - - - - - -
11/04:30pm 20.0 SSW 10 13 1011.3 - 0.0 - - - - - - -
11/04:00pm 20.5 SSW 10 14 1011.3 - 0.0 - - - - - - -
11/03:30pm 21.0 S 11 15 1011.3 - 0.0 - - - - - - -
11/03:00pm 21.9 SSW 13 16 1011.8 - 0.0 - - - - - - -
11/02:30pm 24.3 S 12 15 1011.9 - 0.0 - - - - - - -
11/02:00pm 23.5 S 10 14 1011.9 - 0.0 - - - - - - -
11/01:30pm 24.3 S 10 14 1012.0 - 0.0 - - - - - - -
11/01:00pm 21.3 SSW 11 15 1012.3 - 0.0 - - - - - - -
11/12:30pm 21.6 SSW 11 14 1012.5 - 0.0 - - - - - - -
11/12:00pm 21.4 SSW 11 14 1012.7 - 0.0 - - - - - - -
11/11:30am 21.7 SSW 11 16 1012.8 - 0.0 - - - - - - -
11/11:00am 20.8 SSW 13 17 1013.1 - 0.0 - - - - - - -
11/10:30am 20.9 SW 12 17 1013.4 - 0.0 - - - - - - -
11/10:00am 21.4 SW 10 13 1013.4 - 0.0 - - - - - - -
11/09:30am 21.6 SW 9 11 1013.5 - 0.0 - - - - - - -
11/09:00am 23.1 WSW 4 9 1013.6 - 0.0 - - - - - - -
11/08:30am 23.3 NNW 4 6 1013.6 - 0.0 - - - - - - -
11/08:00am 21.7 NNW 2 3 1013.7 - 0.0 - - - - - - -
11/07:30am 20.4 CALM 0 1 1013.9 - 0.0 - - - - - - -
11/07:00am 19.5 NW 1 2 1014.2 - 0.0 - - - - - - -
11/06:30am 19.4 CALM 0 0 1014.3 - 0.0 - - - - - - -
11/06:00am 18.7 ENE 1 2 1014.2 - 0.0 - - - - - - -
11/05:30am 18.6 NE 2 3 1014.0 - 0.0 - - - - - - -
11/05:00am 16.8 CALM 0 0 1014.0 - 0.0 - - - - - - -
11/04:30am 17.5 ENE 3 5 1013.8 - 0.0 - - - - - - -
11/04:00am 17.8 ENE 3 5 1013.9 - 0.0 - - - - - - -
11/03:30am 17.8 E 3 5 1014.1 - 0.0 - - - - - - -
11/03:00am 17.9 ENE 4 6 1013.9 - 0.0 - - - - - - -
11/02:30am 17.9 ESE 4 6 1014.2 - 0.0 - - - - - - -
11/02:00am 18.0 ESE 5 7 1014.3 - 0.0 - - - - - - -
11/01:30am 18.1 SE 5 8 1015.0 - 0.0 - - - - - - -

Other Formats:

Comma delimited format used in spreadsheet applications
http://www.bom.gov.au/fwo/IDW60701/IDW60701.95635.axf

JavaScript Object Notation format (JSON) in row-major order
http://www.bom.gov.au/fwo/IDW60701/IDW60701.95635.json